Time;durP1;ratioP1;P1;durP2;ratioP2;P2;SDS_P1;SDS_P2;PMS_P1;PMS_P2;Temp;Humidity;BMP_temperature;BMP_pressure;BME280_temperature;BME280_humidity;BME280_pressure;Samples;Min_cycle;Max_cycle;Signal;HPM_P1;HPM_P2
2023/06/22 00:22:43;;;;;;;37.80;24.75;;;;;;;;;;5070659;28;20422;-82
2023/06/22 00:25:09;;;;;;;36.95;26.65;;;;;;;;;;5069888;28;20497;-83
2023/06/22 00:27:36;;;;;;;37.05;27.60;;;;;;;;;;5069868;28;20462;-79
2023/06/22 00:30:02;;;;;;;39.65;27.75;;;;;;;;;;5070934;28;20024;-78
2023/06/22 00:32:28;;;;;;;37.25;27.63;;;;;;;;;;5071259;28;20026;-79
2023/06/22 00:34:55;;;;;;;39.15;28.67;;;;;;;;;;5069773;28;20074;-79
2023/06/22 00:37:25;;;;;;;38.58;28.02;;;;;;;;;;5069332;28;20028;-79
2023/06/22 00:39:51;;;;;;;41.30;28.50;;;;;;;;;;5069710;28;20068;-81
2023/06/22 00:42:17;;;;;;;39.15;28.48;;;;;;;;;;5056835;28;20025;-78
2023/06/22 00:44:44;;;;;;;37.08;27.90;;;;;;;;;;5065862;28;20025;-79
2023/06/22 00:47:13;;;;;;;39.45;27.17;;;;;;;;;;5066100;28;20048;-79
2023/06/22 00:49:39;;;;;;;36.20;27.27;;;;;;;;;;5065931;28;20513;-80
2023/06/22 00:52:13;;;;;;;40.50;29.17;;;;;;;;;;5051346;28;20074;-78
2023/06/22 00:54:45;;;;;;;41.38;28.20;;;;;;;;;;5069445;28;20021;-78
2023/06/22 00:57:15;;;;;;;41.72;26.35;;;;;;;;;;5070063;28;20052;-79
2023/06/22 00:59:45;;;;;;;39.97;26.55;;;;;;;;;;5069226;28;20071;-78
2023/06/22 01:02:12;;;;;;;36.90;27.45;;;;;;;;;;5069298;28;20025;-79
2023/06/22 01:04:38;;;;;;;43.17;28.35;;;;;;;;;;5068467;28;20029;-79
2023/06/22 01:07:13;;;;;;;40.78;28.00;;;;;;;;;;5068774;28;20024;-78
2023/06/22 01:10:00;;;;;;;36.85;27.35;;;;;;;;;;5068890;28;20021;-80
2023/06/22 01:12:30;;;;;;;39.83;27.27;;;;;;;;;;5065722;28;20037;-79
2023/06/22 01:14:58;;;;;;;36.35;28.27;;;;;;;;;;5069848;28;20060;-80
2023/06/22 01:17:25;;;;;;;36.25;27.85;;;;;;;;;;5067322;28;20071;-79
2023/06/22 01:19:57;;;;;;;44.83;28.65;;;;;;;;;;5050009;28;20017;-79
2023/06/22 01:22:29;;;;;;;41.70;29.27;;;;;;;;;;5069445;28;20084;-81
2023/06/22 01:24:55;;;;;;;;;;;;;;;;;;5068985;28;20071;-80
2023/06/22 01:27:29;;;;;;;39.08;29.80;;;;;;;;;;5063223;28;20363;-80
2023/06/22 01:30:05;;;;;;;42.10;30.63;;;;;;;;;;5049051;28;20104;-79
2023/06/22 01:32:32;;;;;;;45.15;30.42;;;;;;;;;;5044189;28;20376;-79
2023/06/22 01:35:00;;;;;;;46.60;30.77;;;;;;;;;;5043111;28;20025;-79
2023/06/22 01:37:27;;;;;;;41.53;30.25;;;;;;;;;;5045884;28;20017;-81
2023/06/22 01:39:55;;;;;;;44.70;30.27;;;;;;;;;;5036854;28;20055;-79
2023/06/22 01:42:22;;;;;;;37.10;29.73;;;;;;;;;;5037039;28;20044;-80
2023/06/22 01:44:48;;;;;;;39.35;30.15;;;;;;;;;;5038975;28;20044;-80
2023/06/22 01:47:14;;;;;;;44.92;30.65;;;;;;;;;;5035507;28;20475;-79
2023/06/22 01:49:41;;;;;;;44.88;30.83;;;;;;;;;;5036760;28;20045;-79
2023/06/22 01:52:08;;;;;;;43.17;32.00;;;;;;;;;;5035598;28;20026;-82
2023/06/22 01:54:34;;;;;;;39.30;30.13;;;;;;;;;;5036091;28;20402;-80
2023/06/22 01:57:00;;;;;;;44.65;31.40;;;;;;;;;;5035213;28;20021;-81
2023/06/22 01:59:33;;;;;;;44.08;31.13;;;;;;;;;;5036815;28;20020;-82
2023/06/22 02:02:05;;;;;;;46.10;31.70;;;;;;;;;;5036579;28;20029;-81
2023/06/22 02:04:35;;;;;;;49.08;32.15;;;;;;;;;;5031464;28;20025;-81
2023/06/22 02:07:04;;;;;;;45.22;33.42;;;;;;;;;;5037384;28;20059;-83
2023/06/22 02:09:32;;;;;;;44.20;31.42;;;;;;;;;;5035469;28;20407;-81
2023/06/22 02:11:59;;;;;;;48.13;32.72;;;;;;;;;;5040126;28;20028;-80
2023/06/22 02:14:25;;;;;;;40.92;30.90;;;;;;;;;;5037470;28;20021;-80
2023/06/22 02:16:52;;;;;;;50.70;32.28;;;;;;;;;;5036941;28;20014;-81
2023/06/22 02:19:23;;;;;;;50.22;33.10;;;;;;;;;;5034452;28;20014;-80
2023/06/22 02:21:49;;;;;;;45.80;32.85;;;;;;;;;;5034933;28;20049;-80
2023/06/22 02:24:15;;;;;;;43.83;31.70;;;;;;;;;;5035661;28;20021;-81
2023/06/22 02:26:42;;;;;;;42.33;30.52;;;;;;;;;;5034666;28;20021;-81
2023/06/22 02:29:08;;;;;;;46.65;29.33;;;;;;;;;;5044349;28;20071;-81
2023/06/22 02:31:34;;;;;;;42.80;30.52;;;;;;;;;;5044696;28;20017;-82
2023/06/22 02:34:00;;;;;;;44.42;31.15;;;;;;;;;;5033116;28;20021;-80
2023/06/22 02:36:27;;;;;;;50.08;31.88;;;;;;;;;;5041604;28;20017;-80
2023/06/22 02:38:56;;;;;;;41.80;30.77;;;;;;;;;;5037073;28;20025;-81
2023/06/22 02:41:22;;;;;;;42.42;30.88;;;;;;;;;;5036762;28;20026;-80
2023/06/22 02:43:48;;;;;;;38.55;29.10;;;;;;;;;;5034854;28;20104;-80
2023/06/22 02:46:15;;;;;;;36.45;28.42;;;;;;;;;;5033911;28;20646;-82
2023/06/22 02:48:41;;;;;;;41.00;30.80;;;;;;;;;;5040256;28;20464;-80
2023/06/22 02:51:07;;;;;;;42.08;30.17;;;;;;;;;;5039107;28;20017;-80
2023/06/22 02:53:33;;;;;;;41.58;31.35;;;;;;;;;;5038003;28;20014;-82
2023/06/22 02:56:01;;;;;;;46.20;30.10;;;;;;;;;;5034615;28;20021;-80
2023/06/22 02:58:27;;;;;;;42.83;30.58;;;;;;;;;;5033081;28;20018;-82
2023/06/22 03:00:53;;;;;;;49.83;31.52;;;;;;;;;;5033273;28;20035;-79
2023/06/22 03:03:20;;;;;;;52.30;31.25;;;;;;;;;;5037390;28;20026;-81
2023/06/22 03:05:46;;;;;;;39.80;30.90;;;;;;;;;;5037312;28;20013;-80
2023/06/22 03:08:12;;;;;;;39.83;29.63;;;;;;;;;;5035668;28;20399;-80
2023/06/22 03:10:38;;;;;;;42.05;30.27;;;;;;;;;;5039117;28;20363;-80
2023/06/22 03:13:04;;;;;;;45.88;30.20;;;;;;;;;;5039649;28;20464;-80
2023/06/22 03:15:32;;;;;;;43.90;31.02;;;;;;;;;;5034110;28;20029;-82
2023/06/22 03:17:58;;;;;;;42.75;30.85;;;;;;;;;;5035115;28;20037;-80
2023/06/22 03:20:26;;;;;;;43.00;30.67;;;;;;;;;;5033925;28;20456;-80
2023/06/22 03:22:52;;;;;;;41.30;29.60;;;;;;;;;;5034169;28;20025;-81
2023/06/22 03:25:19;;;;;;;40.60;28.63;;;;;;;;;;5039583;28;20483;-80
2023/06/22 03:27:45;;;;;;;37.25;27.85;;;;;;;;;;5038231;28;20051;-79
2023/06/22 03:30:12;;;;;;;38.00;28.98;;;;;;;;;;5034615;28;20100;-80
2023/06/22 03:32:38;;;;;;;46.83;29.88;;;;;;;;;;5033347;28;20033;-83
2023/06/22 03:35:06;;;;;;;35.70;27.25;;;;;;;;;;5035393;28;20028;-80
2023/06/22 03:37:32;;;;;;;37.78;26.45;;;;;;;;;;5036102;28;20072;-81
2023/06/22 03:39:58;;;;;;;40.80;28.15;;;;;;;;;;5036359;28;21490;-82
2023/06/22 03:42:24;;;;;;;42.53;28.60;;;;;;;;;;5033653;28;20509;-81
2023/06/22 03:44:50;;;;;;;38.47;28.20;;;;;;;;;;5034637;28;20025;-81
2023/06/22 03:47:17;;;;;;;35.13;27.17;;;;;;;;;;5033375;28;20024;-81
2023/06/22 03:49:43;;;;;;;38.60;26.92;;;;;;;;;;5038609;28;20020;-81
2023/06/22 03:52:10;;;;;;;36.42;25.77;;;;;;;;;;5035441;28;20030;-81
2023/06/22 03:54:37;;;;;;;35.08;24.15;;;;;;;;;;5034802;28;20052;-80
2023/06/22 03:57:03;;;;;;;32.72;24.13;;;;;;;;;;5032740;28;20026;-81
2023/06/22 03:59:29;;;;;;;36.03;25.25;;;;;;;;;;5033314;28;20013;-81
2023/06/22 04:01:55;;;;;;;33.38;22.88;;;;;;;;;;5033024;28;20018;-83
2023/06/22 04:04:21;;;;;;;33.30;23.65;;;;;;;;;;5036339;28;20103;-81
2023/06/22 04:06:48;;;;;;;28.17;21.85;;;;;;;;;;5033628;28;20014;-82
2023/06/22 04:09:14;;;;;;;26.65;21.38;;;;;;;;;;5037879;28;20448;-80
2023/06/22 04:11:40;;;;;;;32.88;21.23;;;;;;;;;;5031963;28;20108;-82
2023/06/22 04:14:06;;;;;;;30.85;21.50;;;;;;;;;;5033446;28;20082;-81
2023/06/22 04:16:32;;;;;;;33.58;21.42;;;;;;;;;;5031929;28;20025;-80
2023/06/22 04:18:58;;;;;;;31.90;21.30;;;;;;;;;;5038682;28;20120;-80
2023/06/22 04:21:24;;;;;;;32.17;22.08;;;;;;;;;;5034836;28;20041;-80
2023/06/22 04:23:51;;;;;;;27.88;21.23;;;;;;;;;;5036468;28;20013;-80
2023/06/22 04:26:17;;;;;;;25.98;20.58;;;;;;;;;;5034603;28;20033;-81
2023/06/22 04:28:43;;;;;;;33.05;21.63;;;;;;;;;;5032998;28;20101;-79
2023/06/22 04:31:09;;;;;;;31.60;21.48;;;;;;;;;;5037023;28;20016;-80
2023/06/22 04:33:35;;;;;;;33.53;22.25;;;;;;;;;;5034142;28;20018;-80
2023/06/22 04:36:01;;;;;;;36.63;22.48;;;;;;;;;;5037605;28;20036;-81
2023/06/22 04:38:28;;;;;;;34.63;20.98;;;;;;;;;;5053613;28;20021;-81
2023/06/22 04:40:54;;;;;;;27.88;21.30;;;;;;;;;;5050230;28;20113;-81
2023/06/22 04:43:20;;;;;;;27.08;20.17;;;;;;;;;;5031419;28;20080;-81
2023/06/22 04:45:52;;;;;;;30.88;23.70;;;;;;;;;;5032787;28;20021;-80
2023/06/22 04:48:18;;;;;;;;;;;;;;;;;;5034054;28;20028;-82
2023/06/22 04:50:44;;;;;;;32.85;23.65;;;;;;;;;;5037588;28;20239;-82
2023/06/22 04:53:12;;;;;;;35.20;22.75;;;;;;;;;;5042745;28;20360;-82
2023/06/22 04:55:41;;;;;;;31.17;23.20;;;;;;;;;;5034076;28;20033;-80
2023/06/22 04:58:07;;;;;;;37.47;24.88;;;;;;;;;;5028099;28;20017;-81
2023/06/22 05:00:36;;;;;;;33.22;23.60;;;;;;;;;;5044432;28;20022;-80
2023/06/22 05:03:03;;;;;;;46.00;30.50;;;;;;;;;;5022179;28;20509;-80
2023/06/22 05:05:29;;;;;;;46.58;31.20;;;;;;;;;;5045045;28;20028;-80
2023/06/22 05:08:00;;;;;;;43.05;31.98;;;;;;;;;;5047264;28;20025;-81
2023/06/22 05:10:26;;;;;;;49.72;34.55;;;;;;;;;;5056711;28;20100;-79
2023/06/22 05:12:52;;;;;;;43.97;31.42;;;;;;;;;;5056003;28;20401;-79
2023/06/22 05:15:26;;;;;;;37.72;29.13;;;;;;;;;;5056956;28;20047;-80
2023/06/22 05:17:52;;;;;;;36.90;28.00;;;;;;;;;;5055418;28;20014;-80
2023/06/22 05:20:18;;;;;;;39.72;27.25;;;;;;;;;;5037941;28;20055;-79
2023/06/22 05:22:45;;;;;;;36.47;26.30;;;;;;;;;;5050919;28;20040;-81
2023/06/22 05:25:12;;;;;;;38.45;26.15;;;;;;;;;;5055147;28;20482;-79
2023/06/22 05:27:39;;;;;;;36.42;26.05;;;;;;;;;;5056691;28;20020;-81
2023/06/22 05:30:06;;;;;;;41.58;26.48;;;;;;;;;;5056233;28;20482;-80
2023/06/22 05:32:33;;;;;;;36.65;26.75;;;;;;;;;;5055086;28;20029;-79
2023/06/22 05:34:59;;;;;;;35.30;25.67;;;;;;;;;;5055236;28;20108;-83
2023/06/22 05:37:26;;;;;;;34.03;25.25;;;;;;;;;;5055050;28;20116;-82
2023/06/22 05:39:53;;;;;;;39.13;26.05;;;;;;;;;;5055230;28;20409;-82
2023/06/22 05:42:20;;;;;;;37.15;23.67;;;;;;;;;;5056498;28;20025;-82
2023/06/22 05:44:46;;;;;;;37.92;25.20;;;;;;;;;;5056079;28;20025;-80
2023/06/22 05:47:13;;;;;;;34.70;24.67;;;;;;;;;;5055256;28;20037;-82
2023/06/22 05:49:39;;;;;;;38.40;24.33;;;;;;;;;;5056232;28;20029;-81
2023/06/22 05:52:05;;;;;;;32.78;23.05;;;;;;;;;;5055692;28;20104;-80
2023/06/22 05:54:32;;;;;;;37.60;25.08;;;;;;;;;;5054964;28;20414;-79
2023/06/22 05:56:58;;;;;;;35.97;23.67;;;;;;;;;;5037693;28;20018;-78
2023/06/22 05:59:24;;;;;;;34.95;24.35;;;;;;;;;;5051955;28;20033;-78
2023/06/22 06:01:50;;;;;;;35.65;25.55;;;;;;;;;;5055646;28;20036;-77
2023/06/22 06:04:19;;;;;;;40.20;26.05;;;;;;;;;;5055994;28;20016;-78
2023/06/22 06:06:49;;;;;;;39.78;25.92;;;;;;;;;;5055397;28;20029;-79
2023/06/22 06:09:15;;;;;;;39.10;26.80;;;;;;;;;;5055902;28;20377;-77
2023/06/22 06:11:42;;;;;;;40.88;24.58;;;;;;;;;;5052790;28;20079;-78
2023/06/22 06:14:08;;;;;;;33.00;24.42;;;;;;;;;;5051163;28;20021;-77
2023/06/22 06:16:34;;;;;;;35.72;23.08;;;;;;;;;;5054647;28;20116;-78
2023/06/22 06:19:00;;;;;;;32.33;23.27;;;;;;;;;;5055226;28;20360;-78
2023/06/22 06:21:26;;;;;;;39.53;23.13;;;;;;;;;;5055330;28;20037;-80
2023/06/22 06:23:53;;;;;;;33.08;23.50;;;;;;;;;;5055704;28;20023;-79
2023/06/22 06:26:27;;;;;;;38.35;23.20;;;;;;;;;;5054055;28;20067;-82
2023/06/22 06:28:54;;;;;;;34.25;22.15;;;;;;;;;;5054249;28;20025;-81
2023/06/22 06:31:20;;;;;;;32.38;22.25;;;;;;;;;;5053962;28;20063;-80
2023/06/22 06:33:47;;;;;;;30.90;20.17;;;;;;;;;;5053963;28;20028;-79
2023/06/22 06:36:13;;;;;;;29.48;20.75;;;;;;;;;;5054301;28;20028;-79
2023/06/22 06:38:39;;;;;;;33.88;21.08;;;;;;;;;;5054128;28;20045;-79
2023/06/22 06:41:05;;;;;;;27.08;18.60;;;;;;;;;;5054965;28;20028;-80
2023/06/22 06:43:31;;;;;;;23.23;17.90;;;;;;;;;;5054022;28;20025;-79
2023/06/22 06:45:57;;;;;;;24.80;19.35;;;;;;;;;;5053917;28;20029;-79
2023/06/22 06:48:23;;;;;;;29.10;18.40;;;;;;;;;;5054227;28;20024;-79
2023/06/22 06:50:50;;;;;;;32.35;20.40;;;;;;;;;;5053699;28;20025;-79
2023/06/22 06:53:16;;;;;;;33.80;19.77;;;;;;;;;;5055019;28;20104;-79
2023/06/22 06:55:43;;;;;;;33.03;19.45;;;;;;;;;;5045295;28;20025;-79
2023/06/22 06:58:11;;;;;;;28.92;19.45;;;;;;;;;;5050303;28;20024;-79
2023/06/22 07:00:38;;;;;;;25.80;18.17;;;;;;;;;;5055133;28;20013;-79
2023/06/22 07:03:05;;;;;;;27.38;18.88;;;;;;;;;;5053242;28;20075;-80
2023/06/22 07:05:31;;;;;;;27.90;18.50;;;;;;;;;;5054857;28;20029;-80
2023/06/22 07:07:57;;;;;;;25.77;18.38;;;;;;;;;;5054725;28;20017;-79
2023/06/22 07:10:23;;;;;;;24.50;18.52;;;;;;;;;;5054494;28;20086;-79
2023/06/22 07:12:49;;;;;;;25.70;18.05;;;;;;;;;;5054818;28;20021;-79
2023/06/22 07:15:15;;;;;;;30.23;18.75;;;;;;;;;;5054406;28;20024;-80
2023/06/22 07:17:42;;;;;;;30.50;18.40;;;;;;;;;;5054646;28;20024;-79
2023/06/22 07:20:14;;;;;;;31.35;18.23;;;;;;;;;;5040496;28;20451;-79
2023/06/22 07:22:47;;;;;;;23.02;16.27;;;;;;;;;;5044104;28;20048;-79
2023/06/22 07:25:16;;;;;;;24.98;16.60;;;;;;;;;;5053021;28;20355;-80
2023/06/22 07:28:02;;;;;;;21.92;15.73;;;;;;;;;;5047974;28;20340;-80
2023/06/22 07:30:28;;;;;;;26.15;16.00;;;;;;;;;;5039431;28;20047;-79
2023/06/22 07:32:55;;;;;;;28.33;17.58;;;;;;;;;;5053102;28;20496;-80
2023/06/22 07:35:21;;;;;;;21.17;15.13;;;;;;;;;;5054631;28;20492;-80
2023/06/22 07:37:47;;;;;;;22.23;15.93;;;;;;;;;;5052789;28;20474;-80
2023/06/22 07:40:13;;;;;;;24.80;15.77;;;;;;;;;;5054155;28;20048;-79
2023/06/22 07:42:40;;;;;;;27.20;16.88;;;;;;;;;;5052223;28;20036;-80
2023/06/22 07:45:08;;;;;;;23.58;17.15;;;;;;;;;;5052960;28;20024;-80
2023/06/22 07:47:35;;;;;;;24.63;16.23;;;;;;;;;;5053879;28;20367;-80
2023/06/22 07:50:02;;;;;;;22.48;15.35;;;;;;;;;;5053439;28;20380;-80
2023/06/22 07:52:29;;;;;;;26.23;16.90;;;;;;;;;;5054135;28;20024;-80
2023/06/22 07:54:55;;;;;;;20.13;16.08;;;;;;;;;;5050761;28;20021;-80
2023/06/22 07:57:21;;;;;;;24.85;16.75;;;;;;;;;;5053563;28;20025;-80
2023/06/22 07:59:47;;;;;;;24.65;16.02;;;;;;;;;;5052661;28;20029;-80
2023/06/22 08:02:13;;;;;;;24.30;16.95;;;;;;;;;;5032812;28;20083;-80
2023/06/22 08:04:41;;;;;;;26.17;17.00;;;;;;;;;;5043210;28;20021;-80
2023/06/22 08:07:07;;;;;;;24.02;16.52;;;;;;;;;;5052923;28;20099;-80
2023/06/22 08:09:33;;;;;;;37.38;15.93;;;;;;;;;;5052231;28;20017;-80
2023/06/22 08:12:00;;;;;;;22.83;16.35;;;;;;;;;;5052182;28;20029;-80
2023/06/22 08:14:26;;;;;;;19.88;14.88;;;;;;;;;;5052676;28;20021;-80
2023/06/22 08:16:52;;;;;;;26.13;17.90;;;;;;;;;;5053725;28;20023;-80
2023/06/22 08:19:18;;;;;;;21.60;15.18;;;;;;;;;;5043849;28;20022;-80
2023/06/22 08:21:45;;;;;;;27.38;16.35;;;;;;;;;;5046404;28;20487;-80
2023/06/22 08:24:11;;;;;;;24.05;16.63;;;;;;;;;;5053647;28;20021;-80
2023/06/22 08:26:37;;;;;;;26.13;16.88;;;;;;;;;;5052098;28;20029;-80
2023/06/22 08:29:04;;;;;;;27.98;15.38;;;;;;;;;;5052267;28;20044;-80
2023/06/22 08:31:30;;;;;;;27.67;16.23;;;;;;;;;;5052317;28;20025;-80
2023/06/22 08:33:56;;;;;;;21.02;15.35;;;;;;;;;;5052049;28;20021;-81
2023/06/22 08:36:22;;;;;;;28.27;16.23;;;;;;;;;;5052586;28;20070;-83
2023/06/22 08:38:51;;;;;;;25.10;15.95;;;;;;;;;;5053578;28;20023;-84
2023/06/22 08:41:17;;;;;;;23.10;15.02;;;;;;;;;;5051892;28;20025;-81
2023/06/22 08:43:44;;;;;;;23.73;14.82;;;;;;;;;;5054741;28;20020;-81
2023/06/22 08:46:10;;;;;;;23.63;15.57;;;;;;;;;;5057512;28;20116;-80
2023/06/22 08:48:36;;;;;;;19.92;14.48;;;;;;;;;;5056082;28;20049;-81
2023/06/22 08:51:03;;;;;;;21.05;13.77;;;;;;;;;;5056187;28;20056;-81
2023/06/22 08:53:29;;;;;;;18.02;13.20;;;;;;;;;;5055859;28;20047;-81
2023/06/22 08:55:55;;;;;;;18.05;13.82;;;;;;;;;;5047058;28;20022;-81
2023/06/22 08:58:21;;;;;;;24.65;14.63;;;;;;;;;;5050768;28;20482;-81
2023/06/22 09:00:48;;;;;;;22.15;14.75;;;;;;;;;;5043804;28;20022;-80
2023/06/22 09:03:14;;;;;;;20.77;14.85;;;;;;;;;;5052643;28;20013;-81
2023/06/22 09:05:41;;;;;;;21.65;14.57;;;;;;;;;;5052497;28;20067;-81
2023/06/22 09:08:07;;;;;;;20.38;14.63;;;;;;;;;;5039676;28;20037;-81
2023/06/22 09:10:33;;;;;;;24.75;15.10;;;;;;;;;;5055814;28;20013;-80
2023/06/22 09:12:59;;;;;;;19.83;14.35;;;;;;;;;;5055681;28;20461;-80
2023/06/22 09:15:25;;;;;;;22.15;13.80;;;;;;;;;;5055398;28;20025;-81
2023/06/22 09:17:53;;;;;;;17.17;14.10;;;;;;;;;;5055914;28;20340;-81
2023/06/22 09:20:20;;;;;;;24.02;13.82;;;;;;;;;;5055466;28;20021;-80
2023/06/22 09:22:46;;;;;;;25.02;14.45;;;;;;;;;;5055025;28;20033;-79
2023/06/22 09:25:12;;;;;;;16.10;13.80;;;;;;;;;;5056862;28;20024;-80
2023/06/22 09:27:38;;;;;;;20.33;13.65;;;;;;;;;;5055599;28;20044;-80
2023/06/22 09:30:05;;;;;;;21.15;14.38;;;;;;;;;;5056114;28;20013;-80
2023/06/22 09:32:31;;;;;;;18.70;13.68;;;;;;;;;;5055403;28;20047;-80
2023/06/22 09:34:57;;;;;;;16.73;13.15;;;;;;;;;;5056552;28;20021;-80
2023/06/22 09:37:23;;;;;;;23.17;13.82;;;;;;;;;;5056397;28;20017;-80
2023/06/22 09:39:49;;;;;;;17.98;13.25;;;;;;;;;;5056533;28;20025;-80
2023/06/22 09:42:53;;;;;;;16.30;14.35;;;;;;;;;;5111108;27;20385;-81
2023/06/22 09:45:19;;;;;;;23.95;20.40;;;;;;;;;;5111445;28;20023;-80
2023/06/22 09:47:46;;;;;;;31.13;25.42;;;;;;;;;;5111704;28;20016;-81
2023/06/22 09:50:12;;;;;;;30.88;23.70;;;;;;;;;;5111274;28;20027;-81
2023/06/22 09:54:23;;;;;;;27.73;22.33;;;;;;;;;;5111608;27;20742;-81
2023/06/22 09:56:49;;;;;;;27.08;23.73;;;;;;;;;;5109990;28;20123;-81
2023/06/22 09:59:15;;;;;;;31.05;20.80;;;;;;;;;;5110406;28;20048;-80
2023/06/22 10:01:42;;;;;;;16.98;15.18;;;;;;;;;;5110375;28;20358;-80
2023/06/22 10:04:08;;;;;;;22.25;14.88;;;;;;;;;;5111216;28;20442;-80
2023/06/22 10:06:34;;;;;;;19.55;14.98;;;;;;;;;;5110388;28;20016;-81
2023/06/22 10:09:00;;;;;;;17.30;14.23;;;;;;;;;;5109373;28;20028;-81
2023/06/22 10:11:30;;;;;;;16.88;14.85;;;;;;;;;;5108823;28;20055;-81
2023/06/22 10:13:56;;;;;;;17.58;13.75;;;;;;;;;;5109543;28;20529;-81
2023/06/22 10:16:26;;;;;;;14.90;13.00;;;;;;;;;;5111591;28;20035;-81
2023/06/22 10:18:52;;;;;;;14.57;12.00;;;;;;;;;;5109656;28;20024;-81
2023/06/22 10:21:18;;;;;;;19.52;11.60;;;;;;;;;;5109947;28;20030;-81
2023/06/22 10:23:44;;;;;;;16.55;13.73;;;;;;;;;;5110911;28;20453;-81
2023/06/22 10:26:11;;;;;;;17.02;14.00;;;;;;;;;;5109688;28;20110;-81
2023/06/22 10:28:37;;;;;;;18.38;14.10;;;;;;;;;;5111059;28;20020;-81
2023/06/22 10:31:03;;;;;;;17.02;12.98;;;;;;;;;;5109496;28;20027;-81
2023/06/22 19:29:53;;;;;;;15.95;9.52;;;;;;;;;;5108263;27;20385;-82
2023/06/22 19:32:20;;;;;;;17.75;10.25;;;;;;;;;;5109088;28;20373;-80
2023/06/22 19:34:47;;;;;;;20.00;9.93;;;;;;;;;;5107641;28;20019;-80
2023/06/22 19:37:16;;;;;;;15.43;9.85;;;;;;;;;;5107947;28;20350;-81
2023/06/22 19:39:43;;;;;;;19.25;9.23;;;;;;;;;;5108208;28;20028;-81
2023/06/22 19:42:10;;;;;;;23.90;11.02;;;;;;;;;;5109784;28;20381;-82
2023/06/22 19:44:36;;;;;;;14.85;9.93;;;;;;;;;;5109373;28;20522;-82
2023/06/22 19:47:02;;;;;;;20.60;10.30;;;;;;;;;;5109419;28;20032;-82
2023/06/22 19:49:28;;;;;;;22.23;10.75;;;;;;;;;;5109789;28;20575;-81
2023/06/22 19:51:54;;;;;;;25.55;11.25;;;;;;;;;;5110734;28;20016;-81
2023/06/22 19:54:20;;;;;;;15.07;10.00;;;;;;;;;;5109153;28;20429;-81
2023/06/22 19:56:48;;;;;;;24.00;10.77;;;;;;;;;;5108447;28;20381;-81
2023/06/22 19:59:20;;;;;;;25.10;11.60;;;;;;;;;;5109180;28;20398;-81
2023/06/22 20:01:46;;;;;;;17.73;10.80;;;;;;;;;;5108957;28;20016;-81
2023/06/22 20:04:13;;;;;;;17.95;10.77;;;;;;;;;;5108929;28;20081;-81
2023/06/22 20:06:40;;;;;;;26.38;10.93;;;;;;;;;;5108543;28;20026;-81
2023/06/22 20:09:07;;;;;;;16.88;10.80;;;;;;;;;;5109600;28;20480;-81
2023/06/22 20:11:34;;;;;;;19.10;10.85;;;;;;;;;;5110209;28;20016;-81
2023/06/22 20:14:00;;;;;;;18.83;10.95;;;;;;;;;;5110326;28;20069;-81
2023/06/22 20:16:27;;;;;;;20.55;11.30;;;;;;;;;;5108787;28;20020;-81
2023/06/22 20:19:07;;;;;;;19.50;11.07;;;;;;;;;;5109023;28;20400;-83
2023/06/22 20:21:33;;;;;;;17.52;11.05;;;;;;;;;;5109487;28;20016;-82
2023/06/22 20:24:03;;;;;;;19.55;10.82;;;;;;;;;;5108891;28;20061;-81
2023/06/22 20:26:29;;;;;;;17.70;10.15;;;;;;;;;;5107282;28;20019;-80
2023/06/22 20:28:56;;;;;;;16.80;10.00;;;;;;;;;;5108023;28;20139;-80
2023/06/22 20:31:23;;;;;;;19.08;10.60;;;;;;;;;;5109570;28;20446;-81
2023/06/22 20:34:02;;;;;;;20.13;12.13;;;;;;;;;;5108024;28;20034;-81
2023/06/22 20:36:32;;;;;;;18.60;10.50;;;;;;;;;;5108321;28;20034;-81
2023/06/22 20:38:58;;;;;;;16.75;9.73;;;;;;;;;;5108779;28;20052;-81
2023/06/22 20:41:25;;;;;;;17.45;10.40;;;;;;;;;;5094161;28;20008;-81
2023/06/22 20:43:54;;;;;;;19.48;10.10;;;;;;;;;;5094804;28;20081;-81
2023/06/22 20:46:20;;;;;;;20.77;10.95;;;;;;;;;;5094526;28;20095;-81
2023/06/22 20:48:46;;;;;;;18.10;10.23;;;;;;;;;;5093718;28;20020;-81
2023/06/22 20:51:12;;;;;;;18.40;10.48;;;;;;;;;;5095004;28;20020;-80
2023/06/22 20:53:38;;;;;;;20.17;10.27;;;;;;;;;;5093914;28;20038;-80
2023/06/22 20:56:05;;;;;;;20.73;10.00;;;;;;;;;;5094480;28;20109;-80
2023/06/22 20:58:31;;;;;;;20.85;9.55;;;;;;;;;;5094099;28;20081;-80
2023/06/22 21:01:00;;;;;;;19.58;9.93;;;;;;;;;;5094458;28;20021;-80
2023/06/22 21:03:26;;;;;;;17.58;10.27;;;;;;;;;;5095808;28;20016;-80
2023/06/22 21:05:52;;;;;;;20.60;10.75;;;;;;;;;;5093293;28;20037;-80
2023/06/22 21:08:18;;;;;;;16.63;8.98;;;;;;;;;;5094236;28;20022;-81
2023/06/22 21:10:44;;;;;;;16.13;9.65;;;;;;;;;;5094582;28;20458;-81
2023/06/22 21:13:11;;;;;;;20.27;9.13;;;;;;;;;;5094002;28;20136;-81
2023/06/22 21:15:37;;;;;;;18.20;9.32;;;;;;;;;;5093929;28;20024;-81
2023/06/22 21:18:03;;;;;;;13.82;9.13;;;;;;;;;;5095511;28;20016;-81
2023/06/22 21:20:29;;;;;;;14.15;9.02;;;;;;;;;;5097695;28;20401;-81
2023/06/22 21:22:55;;;;;;;16.75;8.43;;;;;;;;;;5083993;28;20081;-81
2023/06/22 21:25:21;;;;;;;15.40;8.85;;;;;;;;;;5095227;28;20094;-81
2023/06/22 21:27:47;;;;;;;17.33;9.02;;;;;;;;;;5093130;28;20043;-81
2023/06/22 21:30:15;;;;;;;17.20;8.10;;;;;;;;;;5095030;28;20016;-81
2023/06/22 21:32:41;;;;;;;15.77;7.82;;;;;;;;;;5094707;28;20020;-81
2023/06/22 21:35:11;;;;;;;20.13;8.38;;;;;;;;;;5093845;28;20020;-81
2023/06/22 21:37:38;;;;;;;19.58;8.82;;;;;;;;;;5093688;28;20384;-81
2023/06/22 21:40:04;;;;;;;18.10;9.40;;;;;;;;;;5093397;28;20024;-82
2023/06/22 21:42:30;;;;;;;15.98;8.25;;;;;;;;;;5093280;28;20027;-82
2023/06/22 21:44:56;;;;;;;18.00;9.23;;;;;;;;;;5093658;28;20489;-81
2023/06/22 21:47:24;;;;;;;16.98;8.55;;;;;;;;;;5094621;28;20031;-82
2023/06/22 21:49:51;;;;;;;19.80;8.75;;;;;;;;;;5093214;28;20092;-81
2023/06/22 21:52:17;;;;;;;19.75;8.60;;;;;;;;;;5092645;28;20021;-82
2023/06/22 21:54:43;;;;;;;20.65;8.27;;;;;;;;;;5092942;28;20027;-82
2023/06/22 21:57:10;;;;;;;20.95;8.18;;;;;;;;;;5105438;28;20016;-81
2023/06/22 21:59:36;;;;;;;13.48;8.35;;;;;;;;;;5110109;28;20020;-82
2023/06/22 22:02:02;;;;;;;13.65;8.18;;;;;;;;;;5094303;28;20028;-82
2023/06/22 22:04:29;;;;;;;16.67;7.95;;;;;;;;;;5094543;28;20065;-82
2023/06/22 22:06:55;;;;;;;16.52;8.15;;;;;;;;;;5094332;28;20453;-82
2023/06/22 22:09:23;;;;;;;18.02;9.20;;;;;;;;;;5093736;28;20024;-83
2023/06/22 22:11:50;;;;;;;18.00;9.10;;;;;;;;;;5093250;28;20100;-82
2023/06/22 22:14:18;;;;;;;20.30;8.68;;;;;;;;;;5093144;28;20466;-82
2023/06/22 22:16:44;;;;;;;18.35;9.25;;;;;;;;;;5109531;28;20107;-82
2023/06/22 22:19:11;;;;;;;21.02;9.75;;;;;;;;;;5109810;28;20024;-81
2023/06/22 22:21:37;;;;;;;16.45;9.57;;;;;;;;;;5093624;28;20012;-82
2023/06/22 22:24:03;;;;;;;18.55;8.95;;;;;;;;;;5092846;28;20084;-82
2023/06/22 22:26:30;;;;;;;14.25;8.00;;;;;;;;;;5094249;28;20452;-82
2023/06/22 22:28:57;;;;;;;21.60;10.13;;;;;;;;;;5091671;28;20052;-82
2023/06/22 22:31:23;;;;;;;18.88;9.30;;;;;;;;;;5089545;28;20458;-82
2023/06/22 22:33:49;;;;;;;20.15;9.48;;;;;;;;;;5090988;28;20462;-82
2023/06/22 22:36:15;;;;;;;24.42;10.13;;;;;;;;;;5092343;28;20527;-82
2023/06/22 22:38:42;;;;;;;19.17;8.98;;;;;;;;;;5093710;28;20024;-82
2023/06/22 22:41:09;;;;;;;15.20;8.45;;;;;;;;;;5092636;28;20457;-82
2023/06/22 22:43:35;;;;;;;17.67;9.75;;;;;;;;;;5092156;28;20020;-82
2023/06/22 22:46:01;;;;;;;18.85;9.75;;;;;;;;;;5093636;28;20020;-82
2023/06/22 22:48:31;;;;;;;23.67;9.38;;;;;;;;;;5092421;28;20032;-82
2023/06/22 22:50:57;;;;;;;15.15;8.52;;;;;;;;;;5092034;28;20070;-81
2023/06/22 22:53:24;;;;;;;25.30;10.13;;;;;;;;;;5094131;28;20024;-82
2023/06/22 22:55:50;;;;;;;16.23;9.85;;;;;;;;;;5092169;28;20106;-82
2023/06/22 22:58:16;;;;;;;15.75;10.13;;;;;;;;;;5092046;28;20049;-82
2023/06/22 23:00:42;;;;;;;24.70;9.77;;;;;;;;;;5091258;28;20027;-82
2023/06/22 23:03:08;;;;;;;18.92;9.85;;;;;;;;;;5091981;28;20023;-82
2023/06/22 23:05:35;;;;;;;23.40;9.35;;;;;;;;;;5108574;28;20016;-82
2023/06/22 23:08:03;;;;;;;24.50;9.88;;;;;;;;;;5093371;28;20024;-82
2023/06/22 23:10:30;;;;;;;22.02;10.07;;;;;;;;;;5093095;28;20020;-82
2023/06/22 23:12:57;;;;;;;16.38;9.60;;;;;;;;;;5093034;28;20027;-82
2023/06/22 23:15:23;;;;;;;19.30;9.85;;;;;;;;;;5092117;28;20020;-82
2023/06/22 23:17:51;;;;;;;19.70;9.90;;;;;;;;;;5093009;28;20031;-81
2023/06/22 23:20:19;;;;;;;15.30;9.57;;;;;;;;;;5093982;28;20019;-81
2023/06/22 23:22:45;;;;;;;24.60;11.23;;;;;;;;;;5109790;28;20027;-81
2023/06/22 23:25:12;;;;;;;23.23;9.95;;;;;;;;;;5092293;28;20466;-81
2023/06/22 23:27:38;;;;;;;22.13;9.65;;;;;;;;;;5093584;28;20545;-81
2023/06/22 23:30:08;;;;;;;19.45;10.05;;;;;;;;;;5093661;28;20020;-81
2023/06/22 23:32:35;;;;;;;22.80;10.73;;;;;;;;;;5091934;28;20020;-81
2023/06/22 23:35:02;;;;;;;18.52;10.15;;;;;;;;;;5092086;28;20051;-82
2023/06/22 23:37:28;;;;;;;28.58;10.35;;;;;;;;;;5093086;28;20355;-81
2023/06/22 23:39:54;;;;;;;24.20;10.77;;;;;;;;;;5092161;28;20031;-82